sensor_id;sensor_type;location;lat;lon;timestamp;P1;durP1;ratioP1;P2;durP2;ratioP2
20283;SDS011;10301;50.832;4.080;2023-09-30T00:01:01;19.90;;;9.90;;
20283;SDS011;10301;50.832;4.080;2023-09-30T00:03:27;16.75;;;9.10;;
20283;SDS011;10301;50.832;4.080;2023-09-30T00:05:53;15.07;;;9.75;;
20283;SDS011;10301;50.832;4.080;2023-09-30T00:08:20;17.45;;;9.32;;
20283;SDS011;10301;50.832;4.080;2023-09-30T00:10:46;18.00;;;9.85;;
20283;SDS011;10301;50.832;4.080;2023-09-30T00:13:12;18.67;;;9.13;;
20283;SDS011;10301;50.832;4.080;2023-09-30T00:15:38;15.57;;;9.60;;
20283;SDS011;10301;50.832;4.080;2023-09-30T00:18:03;17.60;;;9.27;;
20283;SDS011;10301;50.832;4.080;2023-09-30T00:20:30;16.95;;;9.10;;
20283;SDS011;10301;50.832;4.080;2023-09-30T00:22:56;16.15;;;9.23;;
20283;SDS011;10301;50.832;4.080;2023-09-30T00:25:22;18.52;;;9.73;;
20283;SDS011;10301;50.832;4.080;2023-09-30T00:27:48;20.33;;;9.25;;
20283;SDS011;10301;50.832;4.080;2023-09-30T00:30:14;19.40;;;9.32;;
20283;SDS011;10301;50.832;4.080;2023-09-30T00:32:40;17.92;;;9.57;;
20283;SDS011;10301;50.832;4.080;2023-09-30T00:35:06;15.88;;;9.48;;
20283;SDS011;10301;50.832;4.080;2023-09-30T00:37:39;17.05;;;9.18;;
20283;SDS011;10301;50.832;4.080;2023-09-30T00:40:06;20.20;;;9.70;;
20283;SDS011;10301;50.832;4.080;2023-09-30T00:42:36;20.25;;;9.95;;
20283;SDS011;10301;50.832;4.080;2023-09-30T00:45:06;18.85;;;9.55;;
20283;SDS011;10301;50.832;4.080;2023-09-30T00:47:34;15.05;;;8.88;;
20283;SDS011;10301;50.832;4.080;2023-09-30T00:50:01;17.20;;;9.57;;
20283;SDS011;10301;50.832;4.080;2023-09-30T00:52:29;22.88;;;10.13;;
20283;SDS011;10301;50.832;4.080;2023-09-30T00:54:56;18.92;;;9.57;;
20283;SDS011;10301;50.832;4.080;2023-09-30T00:57:23;15.45;;;8.93;;
20283;SDS011;10301;50.832;4.080;2023-09-30T00:59:50;18.10;;;9.30;;
20283;SDS011;10301;50.832;4.080;2023-09-30T01:02:19;18.25;;;9.23;;
20283;SDS011;10301;50.832;4.080;2023-09-30T01:04:47;18.75;;;9.10;;
20283;SDS011;10301;50.832;4.080;2023-09-30T01:07:13;16.02;;;8.90;;
20283;SDS011;10301;50.832;4.080;2023-09-30T01:09:39;20.67;;;9.10;;
20283;SDS011;10301;50.832;4.080;2023-09-30T01:12:05;17.55;;;8.93;;
20283;SDS011;10301;50.832;4.080;2023-09-30T01:14:33;20.55;;;9.10;;
20283;SDS011;10301;50.832;4.080;2023-09-30T01:16:59;21.30;;;9.27;;
20283;SDS011;10301;50.832;4.080;2023-09-30T01:19:26;19.00;;;9.43;;
20283;SDS011;10301;50.832;4.080;2023-09-30T01:21:56;16.35;;;8.73;;
20283;SDS011;10301;50.832;4.080;2023-09-30T01:24:28;17.67;;;9.30;;
20283;SDS011;10301;50.832;4.080;2023-09-30T01:26:57;18.33;;;10.05;;
20283;SDS011;10301;50.832;4.080;2023-09-30T01:29:23;21.08;;;9.65;;
20283;SDS011;10301;50.832;4.080;2023-09-30T01:31:51;17.83;;;9.57;;
20283;SDS011;10301;50.832;4.080;2023-09-30T01:34:17;18.20;;;9.10;;
20283;SDS011;10301;50.832;4.080;2023-09-30T01:36:43;19.13;;;9.45;;
20283;SDS011;10301;50.832;4.080;2023-09-30T01:39:09;18.70;;;9.88;;
20283;SDS011;10301;50.832;4.080;2023-09-30T01:41:39;16.70;;;9.48;;
20283;SDS011;10301;50.832;4.080;2023-09-30T01:44:06;16.13;;;9.20;;
20283;SDS011;10301;50.832;4.080;2023-09-30T01:46:32;18.90;;;9.68;;
20283;SDS011;10301;50.832;4.080;2023-09-30T01:48:58;16.48;;;9.23;;
20283;SDS011;10301;50.832;4.080;2023-09-30T01:51:23;20.75;;;9.82;;
20283;SDS011;10301;50.832;4.080;2023-09-30T01:53:49;19.45;;;10.35;;
20283;SDS011;10301;50.832;4.080;2023-09-30T01:56:15;17.30;;;10.13;;
20283;SDS011;10301;50.832;4.080;2023-09-30T01:58:41;15.90;;;9.30;;
20283;SDS011;10301;50.832;4.080;2023-09-30T02:01:07;20.40;;;10.35;;
20283;SDS011;10301;50.832;4.080;2023-09-30T02:03:33;22.90;;;10.13;;
20283;SDS011;10301;50.832;4.080;2023-09-30T02:05:58;15.80;;;9.70;;
20283;SDS011;10301;50.832;4.080;2023-09-30T02:08:24;19.15;;;10.55;;
20283;SDS011;10301;50.832;4.080;2023-09-30T02:10:50;20.88;;;9.73;;
20283;SDS011;10301;50.832;4.080;2023-09-30T02:13:18;19.58;;;9.70;;
20283;SDS011;10301;50.832;4.080;2023-09-30T02:15:45;16.95;;;9.15;;
20283;SDS011;10301;50.832;4.080;2023-09-30T02:18:11;19.80;;;9.68;;
20283;SDS011;10301;50.832;4.080;2023-09-30T02:20:36;22.80;;;9.32;;
20283;SDS011;10301;50.832;4.080;2023-09-30T02:23:05;17.42;;;8.60;;
20283;SDS011;10301;50.832;4.080;2023-09-30T02:25:36;21.08;;;10.10;;
20283;SDS011;10301;50.832;4.080;2023-09-30T02:28:02;22.75;;;9.77;;
20283;SDS011;10301;50.832;4.080;2023-09-30T02:30:28;27.33;;;11.93;;
20283;SDS011;10301;50.832;4.080;2023-09-30T02:32:55;24.02;;;12.30;;
20283;SDS011;10301;50.832;4.080;2023-09-30T02:35:21;17.42;;;9.23;;
20283;SDS011;10301;50.832;4.080;2023-09-30T02:37:47;21.80;;;10.48;;
20283;SDS011;10301;50.832;4.080;2023-09-30T02:40:15;27.63;;;10.90;;
20283;SDS011;10301;50.832;4.080;2023-09-30T02:42:42;20.77;;;10.98;;
20283;SDS011;10301;50.832;4.080;2023-09-30T02:45:09;25.15;;;10.77;;
20283;SDS011;10301;50.832;4.080;2023-09-30T02:47:36;21.98;;;11.05;;
20283;SDS011;10301;50.832;4.080;2023-09-30T02:50:02;19.85;;;10.18;;
20283;SDS011;10301;50.832;4.080;2023-09-30T02:52:30;22.75;;;10.38;;
20283;SDS011;10301;50.832;4.080;2023-09-30T02:54:56;21.65;;;10.65;;
20283;SDS011;10301;50.832;4.080;2023-09-30T02:57:23;24.95;;;11.07;;
20283;SDS011;10301;50.832;4.080;2023-09-30T02:59:49;26.98;;;12.20;;
20283;SDS011;10301;50.832;4.080;2023-09-30T03:02:17;20.33;;;10.18;;
20283;SDS011;10301;50.832;4.080;2023-09-30T03:04:43;28.55;;;10.40;;
20283;SDS011;10301;50.832;4.080;2023-09-30T03:07:10;23.20;;;10.10;;
20283;SDS011;10301;50.832;4.080;2023-09-30T03:09:35;20.50;;;10.20;;
20283;SDS011;10301;50.832;4.080;2023-09-30T03:12:04;26.20;;;11.30;;
20283;SDS011;10301;50.832;4.080;2023-09-30T03:14:30;26.67;;;9.93;;
20283;SDS011;10301;50.832;4.080;2023-09-30T03:16:57;26.00;;;10.52;;
20283;SDS011;10301;50.832;4.080;2023-09-30T03:19:23;23.20;;;10.43;;
20283;SDS011;10301;50.832;4.080;2023-09-30T03:21:49;24.77;;;9.90;;
20283;SDS011;10301;50.832;4.080;2023-09-30T03:24:15;21.27;;;10.13;;
20283;SDS011;10301;50.832;4.080;2023-09-30T03:26:41;22.85;;;10.40;;
20283;SDS011;10301;50.832;4.080;2023-09-30T03:29:07;21.58;;;9.32;;
20283;SDS011;10301;50.832;4.080;2023-09-30T03:31:37;22.35;;;9.63;;
20283;SDS011;10301;50.832;4.080;2023-09-30T03:34:03;23.67;;;10.20;;
20283;SDS011;10301;50.832;4.080;2023-09-30T03:36:29;19.05;;;9.10;;
20283;SDS011;10301;50.832;4.080;2023-09-30T03:38:55;20.60;;;9.15;;
20283;SDS011;10301;50.832;4.080;2023-09-30T03:41:21;24.05;;;9.38;;
20283;SDS011;10301;50.832;4.080;2023-09-30T03:43:47;24.90;;;10.30;;
20283;SDS011;10301;50.832;4.080;2023-09-30T03:46:14;22.58;;;9.35;;
20283;SDS011;10301;50.832;4.080;2023-09-30T03:48:40;22.95;;;9.80;;
20283;SDS011;10301;50.832;4.080;2023-09-30T03:53:48;28.42;;;10.32;;
20283;SDS011;10301;50.832;4.080;2023-09-30T03:56:14;25.05;;;9.43;;
20283;SDS011;10301;50.832;4.080;2023-09-30T03:58:40;23.55;;;9.73;;
20283;SDS011;10301;50.832;4.080;2023-09-30T04:01:07;31.83;;;10.48;;
20283;SDS011;10301;50.832;4.080;2023-09-30T04:03:36;26.77;;;10.20;;
20283;SDS011;10301;50.832;4.080;2023-09-30T04:06:04;26.13;;;10.07;;
20283;SDS011;10301;50.832;4.080;2023-09-30T04:08:33;27.25;;;10.25;;
20283;SDS011;10301;50.832;4.080;2023-09-30T04:11:00;32.40;;;10.25;;
20283;SDS011;10301;50.832;4.080;2023-09-30T04:13:26;29.83;;;10.23;;
20283;SDS011;10301;50.832;4.080;2023-09-30T04:15:52;24.98;;;9.80;;
20283;SDS011;10301;50.832;4.080;2023-09-30T04:18:18;27.98;;;9.70;;
20283;SDS011;10301;50.832;4.080;2023-09-30T04:20:45;29.08;;;9.82;;
20283;SDS011;10301;50.832;4.080;2023-09-30T04:23:11;25.65;;;9.68;;
20283;SDS011;10301;50.832;4.080;2023-09-30T04:25:38;27.05;;;9.63;;
20283;SDS011;10301;50.832;4.080;2023-09-30T04:28:05;34.53;;;10.35;;
20283;SDS011;10301;50.832;4.080;2023-09-30T04:30:31;25.20;;;8.88;;
20283;SDS011;10301;50.832;4.080;2023-09-30T04:32:58;31.15;;;9.25;;
20283;SDS011;10301;50.832;4.080;2023-09-30T04:35:24;25.25;;;8.82;;
20283;SDS011;10301;50.832;4.080;2023-09-30T04:37:50;24.73;;;9.45;;
20283;SDS011;10301;50.832;4.080;2023-09-30T04:40:16;23.67;;;9.88;;
20283;SDS011;10301;50.832;4.080;2023-09-30T04:42:44;28.73;;;10.15;;
20283;SDS011;10301;50.832;4.080;2023-09-30T04:45:12;27.48;;;10.25;;
20283;SDS011;10301;50.832;4.080;2023-09-30T04:47:38;30.33;;;9.68;;
20283;SDS011;10301;50.832;4.080;2023-09-30T04:50:07;26.55;;;9.73;;
20283;SDS011;10301;50.832;4.080;2023-09-30T04:52:37;25.65;;;9.07;;
20283;SDS011;10301;50.832;4.080;2023-09-30T04:55:04;28.08;;;9.07;;
20283;SDS011;10301;50.832;4.080;2023-09-30T04:57:30;25.67;;;9.63;;
20283;SDS011;10301;50.832;4.080;2023-09-30T04:59:56;28.77;;;10.57;;
20283;SDS011;10301;50.832;4.080;2023-09-30T05:02:23;33.35;;;9.93;;
20283;SDS011;10301;50.832;4.080;2023-09-30T05:04:49;29.40;;;10.40;;
20283;SDS011;10301;50.832;4.080;2023-09-30T05:07:14;26.00;;;9.23;;
20283;SDS011;10301;50.832;4.080;2023-09-30T05:09:40;21.85;;;9.27;;
20283;SDS011;10301;50.832;4.080;2023-09-30T05:12:07;28.70;;;9.40;;
20283;SDS011;10301;50.832;4.080;2023-09-30T05:14:33;28.50;;;9.50;;
20283;SDS011;10301;50.832;4.080;2023-09-30T05:17:00;28.13;;;10.93;;
20283;SDS011;10301;50.832;4.080;2023-09-30T05:19:26;29.83;;;9.60;;
20283;SDS011;10301;50.832;4.080;2023-09-30T05:21:52;36.40;;;10.65;;
20283;SDS011;10301;50.832;4.080;2023-09-30T05:24:17;29.30;;;9.82;;
20283;SDS011;10301;50.832;4.080;2023-09-30T05:26:46;27.38;;;9.57;;
20283;SDS011;10301;50.832;4.080;2023-09-30T05:29:11;28.15;;;8.93;;
20283;SDS011;10301;50.832;4.080;2023-09-30T05:31:37;32.67;;;9.27;;
20283;SDS011;10301;50.832;4.080;2023-09-30T05:34:03;24.20;;;9.63;;
20283;SDS011;10301;50.832;4.080;2023-09-30T05:36:29;24.25;;;8.95;;
20283;SDS011;10301;50.832;4.080;2023-09-30T05:38:55;36.78;;;8.75;;
20283;SDS011;10301;50.832;4.080;2023-09-30T05:41:21;25.95;;;8.63;;
20283;SDS011;10301;50.832;4.080;2023-09-30T05:43:46;24.33;;;8.10;;
20283;SDS011;10301;50.832;4.080;2023-09-30T05:46:12;22.92;;;7.93;;
20283;SDS011;10301;50.832;4.080;2023-09-30T05:48:38;26.17;;;9.23;;
20283;SDS011;10301;50.832;4.080;2023-09-30T05:51:04;22.23;;;9.15;;
20283;SDS011;10301;50.832;4.080;2023-09-30T05:53:31;24.55;;;8.63;;
20283;SDS011;10301;50.832;4.080;2023-09-30T05:55:57;25.73;;;8.93;;
20283;SDS011;10301;50.832;4.080;2023-09-30T05:58:26;24.92;;;9.25;;
20283;SDS011;10301;50.832;4.080;2023-09-30T06:00:52;20.70;;;8.43;;
20283;SDS011;10301;50.832;4.080;2023-09-30T06:03:18;28.10;;;9.18;;
20283;SDS011;10301;50.832;4.080;2023-09-30T06:05:46;24.58;;;9.30;;
20283;SDS011;10301;50.832;4.080;2023-09-30T06:08:12;23.83;;;9.02;;
20283;SDS011;10301;50.832;4.080;2023-09-30T06:10:41;23.23;;;8.27;;
20283;SDS011;10301;50.832;4.080;2023-09-30T06:13:11;21.83;;;8.85;;
20283;SDS011;10301;50.832;4.080;2023-09-30T06:15:38;27.45;;;8.82;;
20283;SDS011;10301;50.832;4.080;2023-09-30T06:18:05;18.98;;;8.15;;
20283;SDS011;10301;50.832;4.080;2023-09-30T06:20:31;27.88;;;9.50;;
20283;SDS011;10301;50.832;4.080;2023-09-30T06:22:58;30.80;;;8.95;;
20283;SDS011;10301;50.832;4.080;2023-09-30T06:25:27;21.10;;;8.43;;
20283;SDS011;10301;50.832;4.080;2023-09-30T06:27:53;24.67;;;8.80;;
20283;SDS011;10301;50.832;4.080;2023-09-30T06:30:22;25.92;;;8.98;;
20283;SDS011;10301;50.832;4.080;2023-09-30T06:32:55;21.38;;;9.40;;
20283;SDS011;10301;50.832;4.080;2023-09-30T06:35:21;26.08;;;8.52;;
20283;SDS011;10301;50.832;4.080;2023-09-30T06:37:48;29.05;;;9.95;;
20283;SDS011;10301;50.832;4.080;2023-09-30T06:40:13;20.63;;;8.57;;
20283;SDS011;10301;50.832;4.080;2023-09-30T06:42:39;24.77;;;9.30;;
20283;SDS011;10301;50.832;4.080;2023-09-30T06:45:05;25.40;;;9.10;;
20283;SDS011;10301;50.832;4.080;2023-09-30T06:47:35;26.77;;;9.10;;
20283;SDS011;10301;50.832;4.080;2023-09-30T06:50:02;23.63;;;9.07;;
20283;SDS011;10301;50.832;4.080;2023-09-30T06:52:37;28.15;;;8.57;;
20283;SDS011;10301;50.832;4.080;2023-09-30T06:55:04;25.35;;;8.70;;
20283;SDS011;10301;50.832;4.080;2023-09-30T06:57:33;36.17;;;9.65;;
20283;SDS011;10301;50.832;4.080;2023-09-30T07:00:00;24.58;;;8.82;;
20283;SDS011;10301;50.832;4.080;2023-09-30T07:02:26;27.60;;;9.18;;
20283;SDS011;10301;50.832;4.080;2023-09-30T07:04:53;25.25;;;8.27;;
20283;SDS011;10301;50.832;4.080;2023-09-30T07:07:19;23.63;;;8.70;;
20283;SDS011;10301;50.832;4.080;2023-09-30T07:09:44;23.77;;;9.05;;
20283;SDS011;10301;50.832;4.080;2023-09-30T07:12:10;27.23;;;9.02;;
20283;SDS011;10301;50.832;4.080;2023-09-30T07:14:35;21.15;;;8.95;;
20283;SDS011;10301;50.832;4.080;2023-09-30T07:17:01;26.10;;;9.10;;
20283;SDS011;10301;50.832;4.080;2023-09-30T07:19:29;23.73;;;9.18;;
20283;SDS011;10301;50.832;4.080;2023-09-30T07:21:55;32.85;;;9.18;;
20283;SDS011;10301;50.832;4.080;2023-09-30T07:24:21;20.27;;;8.65;;
20283;SDS011;10301;50.832;4.080;2023-09-30T07:26:47;22.80;;;7.93;;
20283;SDS011;10301;50.832;4.080;2023-09-30T07:29:13;21.05;;;7.60;;
20283;SDS011;10301;50.832;4.080;2023-09-30T07:31:38;23.70;;;8.38;;
20283;SDS011;10301;50.832;4.080;2023-09-30T07:34:04;21.20;;;8.82;;
20283;SDS011;10301;50.832;4.080;2023-09-30T07:36:30;24.58;;;8.98;;
20283;SDS011;10301;50.832;4.080;2023-09-30T07:38:56;24.70;;;8.27;;
20283;SDS011;10301;50.832;4.080;2023-09-30T07:41:22;24.10;;;8.32;;
20283;SDS011;10301;50.832;4.080;2023-09-30T07:43:47;24.58;;;8.90;;
20283;SDS011;10301;50.832;4.080;2023-09-30T07:46:14;19.75;;;7.85;;
20283;SDS011;10301;50.832;4.080;2023-09-30T07:48:40;22.73;;;8.15;;
20283;SDS011;10301;50.832;4.080;2023-09-30T07:51:06;29.65;;;9.23;;
20283;SDS011;10301;50.832;4.080;2023-09-30T07:53:35;27.27;;;8.77;;
20283;SDS011;10301;50.832;4.080;2023-09-30T07:56:00;25.27;;;8.88;;
20283;SDS011;10301;50.832;4.080;2023-09-30T07:58:26;25.13;;;10.10;;
20283;SDS011;10301;50.832;4.080;2023-09-30T08:00:52;24.85;;;9.18;;
20283;SDS011;10301;50.832;4.080;2023-09-30T08:03:18;24.15;;;9.88;;
20283;SDS011;10301;50.832;4.080;2023-09-30T08:05:44;30.92;;;9.07;;
20283;SDS011;10301;50.832;4.080;2023-09-30T08:08:11;27.65;;;8.98;;
20283;SDS011;10301;50.832;4.080;2023-09-30T08:10:37;26.65;;;9.95;;
20283;SDS011;10301;50.832;4.080;2023-09-30T08:13:03;31.00;;;10.02;;
20283;SDS011;10301;50.832;4.080;2023-09-30T08:15:29;21.30;;;9.60;;
20283;SDS011;10301;50.832;4.080;2023-09-30T08:17:55;30.10;;;9.88;;
20283;SDS011;10301;50.832;4.080;2023-09-30T08:20:21;26.50;;;10.00;;
20283;SDS011;10301;50.832;4.080;2023-09-30T08:22:47;25.70;;;9.50;;
20283;SDS011;10301;50.832;4.080;2023-09-30T08:25:13;27.23;;;9.95;;
20283;SDS011;10301;50.832;4.080;2023-09-30T08:27:38;28.58;;;9.68;;
20283;SDS011;10301;50.832;4.080;2023-09-30T08:30:05;26.35;;;9.40;;
20283;SDS011;10301;50.832;4.080;2023-09-30T08:32:32;25.23;;;9.05;;
20283;SDS011;10301;50.832;4.080;2023-09-30T08:34:59;23.25;;;8.82;;
20283;SDS011;10301;50.832;4.080;2023-09-30T08:37:25;21.17;;;8.93;;
20283;SDS011;10301;50.832;4.080;2023-09-30T08:39:51;29.92;;;9.60;;
20283;SDS011;10301;50.832;4.080;2023-09-30T08:42:16;24.83;;;9.18;;
20283;SDS011;10301;50.832;4.080;2023-09-30T08:44:45;26.73;;;8.23;;
20283;SDS011;10301;50.832;4.080;2023-09-30T08:47:11;23.35;;;8.50;;
20283;SDS011;10301;50.832;4.080;2023-09-30T08:49:38;23.50;;;8.05;;
20283;SDS011;10301;50.832;4.080;2023-09-30T08:52:06;23.60;;;8.07;;
20283;SDS011;10301;50.832;4.080;2023-09-30T08:54:35;26.70;;;7.95;;
20283;SDS011;10301;50.832;4.080;2023-09-30T08:57:01;23.65;;;7.35;;
20283;SDS011;10301;50.832;4.080;2023-09-30T08:59:29;25.60;;;7.93;;
20283;SDS011;10301;50.832;4.080;2023-09-30T09:01:58;30.63;;;7.80;;
20283;SDS011;10301;50.832;4.080;2023-09-30T09:04:25;22.40;;;7.72;;
20283;SDS011;10301;50.832;4.080;2023-09-30T09:06:53;25.17;;;7.13;;
20283;SDS011;10301;50.832;4.080;2023-09-30T09:09:20;22.63;;;7.57;;
20283;SDS011;10301;50.832;4.080;2023-09-30T09:11:47;21.58;;;7.65;;
20283;SDS011;10301;50.832;4.080;2023-09-30T09:14:13;22.30;;;7.57;;
20283;SDS011;10301;50.832;4.080;2023-09-30T09:16:52;22.30;;;7.82;;
20283;SDS011;10301;50.832;4.080;2023-09-30T09:19:22;21.55;;;7.38;;
20283;SDS011;10301;50.832;4.080;2023-09-30T09:21:55;23.10;;;7.22;;
20283;SDS011;10301;50.832;4.080;2023-09-30T09:24:33;19.10;;;6.68;;
20283;SDS011;10301;50.832;4.080;2023-09-30T09:27:07;22.58;;;6.78;;
20283;SDS011;10301;50.832;4.080;2023-09-30T09:29:33;22.00;;;6.40;;
20283;SDS011;10301;50.832;4.080;2023-09-30T09:32:08;21.00;;;6.13;;
20283;SDS011;10301;50.832;4.080;2023-09-30T09:34:34;24.48;;;6.65;;
20283;SDS011;10301;50.832;4.080;2023-09-30T09:37:04;26.25;;;6.15;;
20283;SDS011;10301;50.832;4.080;2023-09-30T09:39:39;17.90;;;5.70;;
20283;SDS011;10301;50.832;4.080;2023-09-30T09:42:04;19.63;;;5.60;;
20283;SDS011;10301;50.832;4.080;2023-09-30T09:44:31;20.17;;;5.35;;
20283;SDS011;10301;50.832;4.080;2023-09-30T09:47:01;22.88;;;5.85;;
20283;SDS011;10301;50.832;4.080;2023-09-30T09:49:30;23.27;;;5.82;;
20283;SDS011;10301;50.832;4.080;2023-09-30T09:51:57;21.65;;;5.93;;
20283;SDS011;10301;50.832;4.080;2023-09-30T09:54:25;21.58;;;5.45;;
20283;SDS011;10301;50.832;4.080;2023-09-30T09:56:54;24.95;;;5.65;;
20283;SDS011;10301;50.832;4.080;2023-09-30T09:59:25;23.88;;;6.35;;
20283;SDS011;10301;50.832;4.080;2023-09-30T10:01:52;19.05;;;5.82;;
20283;SDS011;10301;50.832;4.080;2023-09-30T10:04:18;23.25;;;5.55;;
20283;SDS011;10301;50.832;4.080;2023-09-30T10:06:44;20.70;;;5.93;;
20283;SDS011;10301;50.832;4.080;2023-09-30T10:09:17;21.65;;;5.65;;
20283;SDS011;10301;50.832;4.080;2023-09-30T10:11:45;18.60;;;5.25;;
20283;SDS011;10301;50.832;4.080;2023-09-30T10:14:12;16.23;;;4.93;;
20283;SDS011;10301;50.832;4.080;2023-09-30T10:16:58;17.98;;;4.80;;
20283;SDS011;10301;50.832;4.080;2023-09-30T10:19:23;20.00;;;5.03;;
20283;SDS011;10301;50.832;4.080;2023-09-30T10:24:53;17.80;;;5.50;;
20283;SDS011;10301;50.832;4.080;2023-09-30T10:37:42;17.85;;;5.10;;
20283;SDS011;10301;50.832;4.080;2023-09-30T10:40:09;17.92;;;4.80;;
20283;SDS011;10301;50.832;4.080;2023-09-30T10:42:50;17.40;;;4.97;;
20283;SDS011;10301;50.832;4.080;2023-09-30T10:53:16;19.58;;;5.05;;
20283;SDS011;10301;50.832;4.080;2023-09-30T10:55:43;17.25;;;4.85;;
20283;SDS011;10301;50.832;4.080;2023-09-30T10:58:10;19.38;;;4.13;;
20283;SDS011;10301;50.832;4.080;2023-09-30T11:00:37;17.02;;;4.55;;
20283;SDS011;10301;50.832;4.080;2023-09-30T11:03:03;18.42;;;4.40;;
20283;SDS011;10301;50.832;4.080;2023-09-30T11:05:30;14.88;;;3.53;;
20283;SDS011;10301;50.832;4.080;2023-09-30T11:07:59;13.95;;;4.07;;
20283;SDS011;10301;50.832;4.080;2023-09-30T11:10:28;17.25;;;4.22;;
20283;SDS011;10301;50.832;4.080;2023-09-30T11:12:54;11.38;;;3.28;;
20283;SDS011;10301;50.832;4.080;2023-09-30T11:15:21;18.83;;;4.30;;
20283;SDS011;10301;50.832;4.080;2023-09-30T11:17:47;12.88;;;3.88;;
20283;SDS011;10301;50.832;4.080;2023-09-30T11:20:13;15.77;;;4.38;;
20283;SDS011;10301;50.832;4.080;2023-09-30T11:22:39;13.10;;;3.92;;
20283;SDS011;10301;50.832;4.080;2023-09-30T11:25:05;14.10;;;3.92;;
20283;SDS011;10301;50.832;4.080;2023-09-30T11:27:31;13.80;;;3.75;;
20283;SDS011;10301;50.832;4.080;2023-09-30T11:29:57;14.38;;;3.20;;
20283;SDS011;10301;50.832;4.080;2023-09-30T11:32:27;11.13;;;3.45;;
20283;SDS011;10301;50.832;4.080;2023-09-30T11:34:53;16.63;;;3.80;;
20283;SDS011;10301;50.832;4.080;2023-09-30T11:37:19;15.40;;;3.33;;
20283;SDS011;10301;50.832;4.080;2023-09-30T11:39:46;11.68;;;3.22;;
20283;SDS011;10301;50.832;4.080;2023-09-30T11:42:16;18.63;;;3.70;;
20283;SDS011;10301;50.832;4.080;2023-09-30T11:44:46;10.68;;;3.80;;
20283;SDS011;10301;50.832;4.080;2023-09-30T11:47:13;13.05;;;3.28;;
20283;SDS011;10301;50.832;4.080;2023-09-30T11:49:40;13.15;;;2.85;;
20283;SDS011;10301;50.832;4.080;2023-09-30T11:52:13;14.55;;;4.35;;
20283;SDS011;10301;50.832;4.080;2023-09-30T11:54:44;13.82;;;4.22;;
20283;SDS011;10301;50.832;4.080;2023-09-30T11:57:11;11.43;;;3.60;;
20283;SDS011;10301;50.832;4.080;2023-09-30T11:59:41;12.18;;;3.03;;
20283;SDS011;10301;50.832;4.080;2023-09-30T12:02:11;8.85;;;2.90;;
20283;SDS011;10301;50.832;4.080;2023-09-30T12:04:40;8.75;;;3.08;;
20283;SDS011;10301;50.832;4.080;2023-09-30T12:07:09;11.73;;;2.78;;
20283;SDS011;10301;50.832;4.080;2023-09-30T12:09:35;12.10;;;3.22;;
20283;SDS011;10301;50.832;4.080;2023-09-30T12:12:02;12.18;;;3.35;;
20283;SDS011;10301;50.832;4.080;2023-09-30T12:14:29;15.27;;;3.22;;
20283;SDS011;10301;50.832;4.080;2023-09-30T12:16:56;12.68;;;3.75;;
20283;SDS011;10301;50.832;4.080;2023-09-30T12:19:22;11.70;;;3.30;;
20283;SDS011;10301;50.832;4.080;2023-09-30T12:21:47;11.25;;;2.92;;
20283;SDS011;10301;50.832;4.080;2023-09-30T12:24:14;14.63;;;3.70;;
20283;SDS011;10301;50.832;4.080;2023-09-30T12:26:44;14.27;;;3.17;;
20283;SDS011;10301;50.832;4.080;2023-09-30T12:29:17;11.77;;;2.58;;
20283;SDS011;10301;50.832;4.080;2023-09-30T12:31:47;11.30;;;3.30;;
20283;SDS011;10301;50.832;4.080;2023-09-30T12:34:14;12.38;;;2.70;;
20283;SDS011;10301;50.832;4.080;2023-09-30T12:36:40;9.70;;;2.90;;
20283;SDS011;10301;50.832;4.080;2023-09-30T12:39:07;116.82;;;16.05;;
20283;SDS011;10301;50.832;4.080;2023-09-30T12:41:40;11.07;;;3.20;;
20283;SDS011;10301;50.832;4.080;2023-09-30T12:44:06;10.63;;;3.08;;
20283;SDS011;10301;50.832;4.080;2023-09-30T12:46:32;11.75;;;3.13;;
20283;SDS011;10301;50.832;4.080;2023-09-30T12:49:05;15.35;;;3.85;;
20283;SDS011;10301;50.832;4.080;2023-09-30T12:51:31;9.23;;;2.90;;
20283;SDS011;10301;50.832;4.080;2023-09-30T12:53:58;10.85;;;2.97;;
20283;SDS011;10301;50.832;4.080;2023-09-30T12:56:24;9.02;;;3.10;;
20283;SDS011;10301;50.832;4.080;2023-09-30T12:58:50;11.18;;;3.10;;
20283;SDS011;10301;50.832;4.080;2023-09-30T13:01:16;11.63;;;3.17;;
20283;SDS011;10301;50.832;4.080;2023-09-30T13:03:43;14.13;;;3.72;;
20283;SDS011;10301;50.832;4.080;2023-09-30T13:06:09;10.63;;;2.88;;
20283;SDS011;10301;50.832;4.080;2023-09-30T13:08:35;9.63;;;2.53;;
20283;SDS011;10301;50.832;4.080;2023-09-30T13:11:01;12.23;;;2.67;;
20283;SDS011;10301;50.832;4.080;2023-09-30T13:13:31;9.63;;;2.75;;
20283;SDS011;10301;50.832;4.080;2023-09-30T13:16:02;9.85;;;2.75;;
20283;SDS011;10301;50.832;4.080;2023-09-30T13:18:32;9.45;;;2.85;;
20283;SDS011;10301;50.832;4.080;2023-09-30T13:20:58;10.00;;;2.63;;
20283;SDS011;10301;50.832;4.080;2023-09-30T13:23:24;9.23;;;2.72;;
20283;SDS011;10301;50.832;4.080;2023-09-30T13:25:51;11.30;;;3.08;;
20283;SDS011;10301;50.832;4.080;2023-09-30T13:28:17;11.55;;;3.55;;
20283;SDS011;10301;50.832;4.080;2023-09-30T13:30:43;8.88;;;3.30;;
20283;SDS011;10301;50.832;4.080;2023-09-30T13:33:10;10.52;;;2.72;;
20283;SDS011;10301;50.832;4.080;2023-09-30T13:35:36;9.18;;;4.60;;
20283;SDS011;10301;50.832;4.080;2023-09-30T13:38:02;10.57;;;3.00;;
20283;SDS011;10301;50.832;4.080;2023-09-30T13:40:28;12.35;;;3.50;;
20283;SDS011;10301;50.832;4.080;2023-09-30T13:42:55;10.98;;;2.80;;
20283;SDS011;10301;50.832;4.080;2023-09-30T13:45:22;10.38;;;2.75;;
20283;SDS011;10301;50.832;4.080;2023-09-30T13:47:48;10.52;;;2.88;;
20283;SDS011;10301;50.832;4.080;2023-09-30T13:50:13;9.65;;;2.70;;
20283;SDS011;10301;50.832;4.080;2023-09-30T13:52:39;9.30;;;2.67;;
20283;SDS011;10301;50.832;4.080;2023-09-30T13:55:05;9.15;;;2.70;;
20283;SDS011;10301;50.832;4.080;2023-09-30T13:57:31;9.32;;;2.72;;
20283;SDS011;10301;50.832;4.080;2023-09-30T13:59:57;9.77;;;2.90;;
20283;SDS011;10301;50.832;4.080;2023-09-30T14:02:23;10.82;;;2.80;;
20283;SDS011;10301;50.832;4.080;2023-09-30T14:04:49;11.32;;;3.03;;
20283;SDS011;10301;50.832;4.080;2023-09-30T14:07:15;11.02;;;3.20;;
20283;SDS011;10301;50.832;4.080;2023-09-30T14:09:43;12.45;;;2.92;;
20283;SDS011;10301;50.832;4.080;2023-09-30T14:12:09;10.65;;;2.88;;
20283;SDS011;10301;50.832;4.080;2023-09-30T14:14:35;11.27;;;3.22;;
20283;SDS011;10301;50.832;4.080;2023-09-30T14:17:01;12.02;;;2.55;;
20283;SDS011;10301;50.832;4.080;2023-09-30T14:19:33;9.27;;;2.60;;
20283;SDS011;10301;50.832;4.080;2023-09-30T14:21:59;7.32;;;2.53;;
20283;SDS011;10301;50.832;4.080;2023-09-30T14:24:25;10.35;;;2.88;;
20283;SDS011;10301;50.832;4.080;2023-09-30T14:26:51;8.65;;;2.75;;
20283;SDS011;10301;50.832;4.080;2023-09-30T14:29:16;11.18;;;2.63;;
20283;SDS011;10301;50.832;4.080;2023-09-30T14:31:42;8.30;;;3.28;;
20283;SDS011;10301;50.832;4.080;2023-09-30T14:34:07;11.60;;;2.50;;
20283;SDS011;10301;50.832;4.080;2023-09-30T14:36:33;12.60;;;2.92;;
20283;SDS011;10301;50.832;4.080;2023-09-30T14:38:59;9.05;;;2.67;;
20283;SDS011;10301;50.832;4.080;2023-09-30T14:41:25;9.95;;;3.13;;
20283;SDS011;10301;50.832;4.080;2023-09-30T14:43:51;9.50;;;2.88;;
20283;SDS011;10301;50.832;4.080;2023-09-30T14:46:16;6.93;;;2.63;;
20283;SDS011;10301;50.832;4.080;2023-09-30T14:48:42;10.20;;;3.10;;
20283;SDS011;10301;50.832;4.080;2023-09-30T14:51:08;7.60;;;2.65;;
20283;SDS011;10301;50.832;4.080;2023-09-30T14:53:34;13.55;;;3.30;;
20283;SDS011;10301;50.832;4.080;2023-09-30T14:56:00;10.95;;;2.90;;